createdAt,value
2019-05-20T00:00:34.124Z,15.26
2019-05-20T00:01:34.145Z,15.26
2019-05-20T00:02:34.162Z,15.14
2019-05-20T00:03:34.185Z,15.17
2019-05-20T00:04:34.206Z,15.26
2019-05-20T00:05:34.257Z,15.15
2019-05-20T00:06:34.249Z,15.22
2019-05-20T00:07:34.269Z,15.14
2019-05-20T00:08:34.286Z,15.17
2019-05-20T00:09:34.313Z,15.18
2019-05-20T00:10:34.330Z,15.15
2019-05-20T00:11:34.350Z,15.14
2019-05-20T00:12:34.374Z,15.17
2019-05-20T00:13:34.391Z,15.15
2019-05-20T00:14:34.413Z,15.11
2019-05-20T00:15:34.432Z,15.15
2019-05-20T00:16:34.457Z,15.17
2019-05-20T00:17:34.495Z,15.07
2019-05-20T00:18:34.494Z,15.14
2019-05-20T00:19:34.516Z,15.22
2019-05-20T00:20:34.537Z,15.18
2019-05-20T00:21:34.560Z,15.15
2019-05-20T00:22:34.577Z,15.15
2019-05-20T00:23:34.597Z,15.05
2019-05-20T00:24:34.615Z,15.05
2019-05-20T00:25:34.639Z,15.12
2019-05-20T00:26:34.661Z,15.07
2019-05-20T00:27:34.680Z,15.02
2019-05-20T00:28:34.700Z,15.07
2019-05-20T00:29:34.720Z,15.10
2019-05-20T00:30:34.743Z,15.11
2019-05-20T00:31:34.762Z,15.04
2019-05-20T00:32:40.967Z,15.02
2019-05-20T00:33:34.804Z,15.12
2019-05-20T00:34:35.741Z,15.07
2019-05-20T00:35:34.847Z,15.08
2019-05-20T00:36:34.873Z,15.08
2019-05-20T00:37:34.889Z,15.11
2019-05-20T00:38:34.911Z,15.05
2019-05-20T00:39:34.926Z,15.04
2019-05-20T00:40:34.950Z,15.05
2019-05-20T00:41:34.968Z,15.07
2019-05-20T00:42:34.989Z,15.07
2019-05-20T00:43:35.023Z,15.04
2019-05-20T00:44:35.031Z,15.07
2019-05-20T00:45:35.049Z,15.08
2019-05-20T00:46:35.109Z,15.04
2019-05-20T00:47:35.092Z,15.07
2019-05-20T00:48:35.116Z,15.02
2019-05-20T00:49:35.132Z,15.05
2019-05-20T00:50:35.155Z,15.02
2019-05-20T00:51:35.176Z,15.02
2019-05-20T00:52:35.196Z,15.04
2019-05-20T00:53:35.215Z,14.96
2019-05-20T00:54:35.235Z,15.00
2019-05-20T00:55:35.256Z,14.94
2019-05-20T00:56:35.278Z,14.93
2019-05-20T00:57:35.299Z,14.96
2019-05-20T00:58:35.316Z,14.96
2019-05-20T00:59:35.343Z,14.90
2019-05-20T01:00:35.442Z,14.90
2019-05-20T01:01:35.452Z,14.93
2019-05-20T01:02:35.438Z,14.92
2019-05-20T01:03:35.487Z,14.93
2019-05-20T01:04:35.502Z,14.99
2019-05-20T01:05:35.494Z,14.96
2019-05-20T01:06:35.497Z,14.82
2019-05-20T01:07:35.510Z,14.85
2019-05-20T01:08:35.523Z,14.86
2019-05-20T01:09:35.542Z,14.90
2019-05-20T01:10:35.564Z,14.89
2019-05-20T01:11:35.586Z,14.89
2019-05-20T01:12:35.601Z,14.78
2019-05-20T01:13:35.626Z,14.73
2019-05-20T01:14:35.645Z,14.78
2019-05-20T01:15:35.664Z,14.86
2019-05-20T01:16:35.689Z,14.87
2019-05-20T01:17:35.705Z,14.87
2019-05-20T01:18:35.726Z,14.78
2019-05-20T01:19:35.748Z,14.82
2019-05-20T01:20:35.767Z,14.78
2019-05-20T01:21:35.786Z,14.79
2019-05-20T01:22:35.810Z,14.73
2019-05-20T01:23:35.829Z,14.77
2019-05-20T01:24:35.850Z,14.86
2019-05-20T01:25:35.870Z,14.74
2019-05-20T01:26:35.890Z,14.77
2019-05-20T01:27:35.911Z,14.82
2019-05-20T01:28:35.933Z,14.79
2019-05-20T01:29:35.951Z,14.77
2019-05-20T01:30:35.971Z,14.78
2019-05-20T01:31:35.993Z,14.79
2019-05-20T01:32:36.018Z,14.79
2019-05-20T01:33:36.032Z,14.78
2019-05-20T01:34:36.053Z,14.81
2019-05-20T01:35:36.077Z,14.79
2019-05-20T01:36:36.092Z,14.79
2019-05-20T01:37:36.112Z,14.74
2019-05-20T01:38:36.135Z,14.81
2019-05-20T01:39:36.161Z,14.81
2019-05-20T01:40:36.175Z,14.78
2019-05-20T01:41:36.195Z,14.87
2019-05-20T01:42:36.216Z,14.81
2019-05-20T01:43:36.245Z,14.79
2019-05-20T01:44:36.256Z,14.74
2019-05-20T01:45:36.277Z,14.78
2019-05-20T01:46:36.298Z,14.74
2019-05-20T01:47:36.320Z,14.74
2019-05-20T01:48:36.336Z,14.78
2019-05-20T01:49:36.357Z,14.73
2019-05-20T01:50:36.382Z,14.85
2019-05-20T01:51:36.397Z,14.77
2019-05-20T01:52:36.420Z,14.71
2019-05-20T01:53:36.443Z,14.77
2019-05-20T01:54:36.461Z,14.71
2019-05-20T01:55:36.485Z,14.68
2019-05-20T01:56:36.501Z,14.74
2019-05-20T01:57:36.522Z,14.77
2019-05-20T01:58:39.298Z,14.73
2019-05-20T01:59:36.564Z,14.71
2019-05-20T02:00:36.602Z,14.73
2019-05-20T02:01:36.603Z,14.68
2019-05-20T02:02:36.625Z,14.71
2019-05-20T02:03:36.652Z,14.74
2019-05-20T02:04:36.665Z,14.74
2019-05-20T02:05:36.685Z,14.70
2019-05-20T02:06:36.707Z,14.70
2019-05-20T02:07:36.733Z,14.61
2019-05-20T02:08:36.746Z,14.62
2019-05-20T02:09:36.767Z,14.66
2019-05-20T02:10:36.788Z,14.61
2019-05-20T02:11:36.811Z,14.66
2019-05-20T02:12:36.833Z,14.66
2019-05-20T02:13:36.847Z,14.59
2019-05-20T02:14:36.870Z,14.63
2019-05-20T02:15:36.891Z,14.62
2019-05-20T02:16:36.921Z,14.66
2019-05-20T02:17:36.935Z,14.62
2019-05-20T02:18:36.952Z,14.62
2019-05-20T02:19:36.972Z,14.59
2019-05-20T02:20:36.993Z,14.51
2019-05-20T02:21:37.013Z,14.49
2019-05-20T02:22:37.035Z,14.53
2019-05-20T02:23:37.052Z,14.52
2019-05-20T02:24:37.069Z,14.56
2019-05-20T02:25:37.102Z,14.51
2019-05-20T02:26:37.116Z,14.55
2019-05-20T02:27:37.138Z,14.56
2019-05-20T02:28:37.154Z,14.59
2019-05-20T02:29:37.176Z,14.49
2019-05-20T02:30:37.202Z,14.51
2019-05-20T02:31:37.218Z,14.53
2019-05-20T02:32:37.323Z,14.52
2019-05-20T02:33:51.020Z,14.56
2019-05-20T02:34:37.322Z,14.49
2019-05-20T02:35:37.325Z,14.48
2019-05-20T02:36:37.384Z,14.59
2019-05-20T02:37:37.381Z,14.58
2019-05-20T02:38:37.386Z,14.61
2019-05-20T02:39:37.393Z,14.59
2019-05-20T02:40:37.401Z,14.58
2019-05-20T02:41:37.420Z,14.58
2019-05-20T02:42:37.439Z,14.55
2019-05-20T02:43:37.461Z,14.56
2019-05-20T02:44:37.483Z,14.56
2019-05-20T02:45:37.502Z,14.48
2019-05-20T02:46:37.525Z,14.51
2019-05-20T02:47:37.542Z,14.52
2019-05-20T02:48:37.572Z,14.44
2019-05-20T02:49:37.585Z,14.52
2019-05-20T02:50:37.608Z,14.49
2019-05-20T02:51:37.624Z,14.55
2019-05-20T02:52:37.671Z,14.49
2019-05-20T02:53:37.667Z,14.45
2019-05-20T02:54:37.686Z,14.49
2019-05-20T02:55:37.709Z,14.45
2019-05-20T02:56:37.725Z,14.36
2019-05-20T02:57:37.751Z,14.48
2019-05-20T02:58:37.769Z,14.44
2019-05-20T02:59:37.785Z,14.43
2019-05-20T03:00:37.804Z,14.51
2019-05-20T03:01:37.826Z,14.43
2019-05-20T03:02:37.848Z,14.43
2019-05-20T03:03:37.872Z,14.49
2019-05-20T03:04:37.888Z,14.41
2019-05-20T03:05:37.909Z,14.38
2019-05-20T03:06:37.932Z,14.41
2019-05-20T03:07:37.949Z,14.41
2019-05-20T03:08:37.968Z,14.34
2019-05-20T03:09:37.990Z,14.37
2019-05-20T03:10:38.023Z,14.48
2019-05-20T03:11:38.033Z,14.37
2019-05-20T03:12:38.052Z,14.33
2019-05-20T03:13:38.070Z,14.38
2019-05-20T03:14:38.090Z,14.34
2019-05-20T03:15:38.113Z,14.37
2019-05-20T03:16:38.140Z,14.33
2019-05-20T03:17:38.154Z,14.31
2019-05-20T03:18:38.171Z,14.33
2019-05-20T03:19:38.194Z,14.30
2019-05-20T03:20:38.215Z,14.33
2019-05-20T03:21:38.238Z,14.36
2019-05-20T03:22:38.252Z,14.30
2019-05-20T03:23:38.278Z,14.43
2019-05-20T03:24:38.292Z,14.36
2019-05-20T03:25:38.311Z,14.31
2019-05-20T03:26:38.335Z,14.38
2019-05-20T03:27:38.357Z,14.33
2019-05-20T03:28:38.375Z,14.36
2019-05-20T03:29:38.399Z,14.33
2019-05-20T03:30:38.429Z,14.34
2019-05-20T03:31:38.436Z,14.37
2019-05-20T03:32:38.461Z,14.36
2019-05-20T03:33:38.482Z,14.40
2019-05-20T03:34:48.020Z,14.45
2019-05-20T03:35:38.515Z,14.38
2019-05-20T03:36:38.536Z,14.43
2019-05-20T03:37:38.557Z,14.38
2019-05-20T03:38:38.577Z,14.41
2019-05-20T03:39:38.598Z,14.38
2019-05-20T03:40:38.622Z,14.41
2019-05-20T03:41:38.637Z,14.45
2019-05-20T03:42:38.659Z,14.43
2019-05-20T03:43:38.685Z,14.48
2019-05-20T03:44:38.705Z,14.40
2019-05-20T03:45:38.725Z,14.45
2019-05-20T03:46:38.746Z,14.45
2019-05-20T03:47:38.761Z,14.48
2019-05-20T03:48:38.791Z,14.52
2019-05-20T03:49:38.801Z,14.38
2019-05-20T03:50:38.821Z,14.52
2019-05-20T03:51:38.842Z,14.45
2019-05-20T03:52:38.873Z,14.40
2019-05-20T03:53:38.881Z,14.41
2019-05-20T03:54:38.903Z,14.45
2019-05-20T03:55:38.924Z,14.56
2019-05-20T03:56:38.943Z,14.48
2019-05-20T03:57:38.966Z,14.53
2019-05-20T03:58:38.989Z,14.53
2019-05-20T03:59:39.010Z,14.51
2019-05-20T04:00:39.025Z,14.59
2019-05-20T04:01:39.048Z,14.53
2019-05-20T04:02:39.068Z,14.55
2019-05-20T04:03:39.090Z,14.59
2019-05-20T04:04:39.112Z,14.52
2019-05-20T04:05:39.165Z,14.52
2019-05-20T04:06:39.234Z,14.53
2019-05-20T04:07:39.211Z,14.53
2019-05-20T04:08:39.275Z,14.59
2019-05-20T04:09:39.277Z,14.51
2019-05-20T04:10:39.267Z,14.61
2019-05-20T04:11:39.265Z,14.66
2019-05-20T04:12:39.274Z,14.67
2019-05-20T04:13:39.296Z,14.66
2019-05-20T04:14:39.312Z,14.66
2019-05-20T04:15:39.338Z,14.63
2019-05-20T04:16:39.353Z,14.71
2019-05-20T04:17:39.377Z,14.59
2019-05-20T04:18:39.404Z,14.59
2019-05-20T04:19:39.419Z,14.61
2019-05-20T04:20:39.437Z,14.66
2019-05-20T04:21:39.459Z,14.59
2019-05-20T04:22:39.484Z,14.66
2019-05-20T04:23:39.501Z,14.67
2019-05-20T04:24:39.520Z,14.73
2019-05-20T04:25:39.540Z,14.67
2019-05-20T04:26:39.561Z,14.70
2019-05-20T04:27:39.581Z,14.74
2019-05-20T04:28:39.605Z,14.78
2019-05-20T04:29:39.622Z,14.82
2019-05-20T04:30:39.653Z,14.73
2019-05-20T04:31:39.663Z,14.74
2019-05-20T04:32:39.719Z,14.71
2019-05-20T04:33:39.704Z,14.74
2019-05-20T04:34:39.726Z,14.78
2019-05-20T04:35:39.750Z,14.87
2019-05-20T04:36:39.767Z,14.89
2019-05-20T04:37:39.787Z,14.87
2019-05-20T04:38:39.811Z,14.92
2019-05-20T04:39:39.829Z,14.93
2019-05-20T04:40:39.852Z,14.87
2019-05-20T04:41:39.871Z,14.93
2019-05-20T04:42:39.890Z,14.93
2019-05-20T04:43:39.912Z,14.92
2019-05-20T04:44:39.931Z,14.99
2019-05-20T04:45:39.957Z,14.92
2019-05-20T04:46:39.976Z,14.96
2019-05-20T04:47:39.996Z,14.90
2019-05-20T04:48:40.025Z,14.94
2019-05-20T04:49:40.038Z,15.00
2019-05-20T04:50:40.058Z,15.04
2019-05-20T04:51:40.082Z,14.99
2019-05-20T04:52:40.101Z,15.00
2019-05-20T04:53:40.118Z,15.05
2019-05-20T04:54:40.144Z,15.02
2019-05-20T04:55:40.163Z,15.14
2019-05-20T04:56:40.186Z,15.05
2019-05-20T04:57:40.220Z,15.04
2019-05-20T04:58:40.224Z,15.11
2019-05-20T04:59:40.244Z,15.07
2019-05-20T05:00:40.266Z,15.07
2019-05-20T05:01:40.287Z,15.11
2019-05-20T05:02:43.361Z,15.11
2019-05-20T05:03:40.331Z,15.02
2019-05-20T05:04:40.350Z,15.07
2019-05-20T05:05:40.375Z,15.05
2019-05-20T05:06:40.393Z,15.07
2019-05-20T05:07:40.409Z,15.08
2019-05-20T05:08:40.432Z,15.07
2019-05-20T05:09:40.451Z,15.10
2019-05-20T05:10:40.475Z,15.12
2019-05-20T05:11:40.495Z,15.04
2019-05-20T05:12:40.515Z,15.10
2019-05-20T05:13:40.536Z,15.12
2019-05-20T05:14:40.575Z,15.11
2019-05-20T05:15:40.579Z,15.17
2019-05-20T05:16:40.602Z,15.19
2019-05-20T05:17:40.621Z,15.10
2019-05-20T05:18:40.641Z,15.14
2019-05-20T05:19:40.663Z,15.25
2019-05-20T05:20:40.718Z,15.19
2019-05-20T05:21:40.709Z,15.26
2019-05-20T05:22:40.727Z,15.27
2019-05-20T05:23:40.747Z,15.23
2019-05-20T05:24:40.767Z,15.22
2019-05-20T05:25:40.786Z,15.35
2019-05-20T05:26:40.811Z,15.29
2019-05-20T05:27:40.831Z,15.41
2019-05-20T05:28:40.851Z,15.47
2019-05-20T05:29:40.872Z,15.51
2019-05-20T05:30:40.894Z,15.51
2019-05-20T05:31:40.915Z,15.50
2019-05-20T05:32:40.942Z,15.54
2019-05-20T05:33:40.957Z,15.55
2019-05-20T05:34:40.980Z,15.67
2019-05-20T05:35:52.311Z,15.65
2019-05-20T05:36:41.056Z,15.66
2019-05-20T05:37:41.097Z,15.63
2019-05-20T05:38:41.089Z,15.69
2019-05-20T05:39:41.163Z,15.65
2019-05-20T05:40:41.160Z,15.73
2019-05-20T05:41:41.163Z,15.72
2019-05-20T05:42:41.154Z,15.63
2019-05-20T05:43:41.171Z,15.76
2019-05-20T05:44:41.191Z,15.76
2019-05-20T05:45:41.216Z,15.78
2019-05-20T05:46:41.235Z,15.81
2019-05-20T05:47:41.265Z,15.85
2019-05-20T05:48:41.282Z,15.84
2019-05-20T05:49:41.300Z,15.76
2019-05-20T05:50:41.329Z,15.76
2019-05-20T05:51:41.355Z,15.76
2019-05-20T05:52:41.365Z,15.75
2019-05-20T05:53:41.386Z,15.84
2019-05-20T05:54:41.407Z,15.80
2019-05-20T05:55:41.429Z,15.99
2019-05-20T05:56:41.451Z,15.96
2019-05-20T05:57:41.474Z,15.98
2019-05-20T05:58:41.494Z,16.05
2019-05-20T05:59:41.513Z,16.10
2019-05-20T06:00:41.542Z,16.02
2019-05-20T06:01:41.563Z,16.10
2019-05-20T06:02:41.581Z,16.22
2019-05-20T06:03:41.602Z,16.22
2019-05-20T06:04:41.621Z,16.28
2019-05-20T06:05:41.646Z,16.31
2019-05-20T06:06:41.666Z,16.34
2019-05-20T06:07:41.698Z,16.41
2019-05-20T06:08:41.712Z,16.41
2019-05-20T06:09:41.733Z,16.51
2019-05-20T06:10:41.757Z,16.54
2019-05-20T06:11:41.777Z,16.64
2019-05-20T06:12:41.800Z,16.72
2019-05-20T06:13:41.821Z,16.74
2019-05-20T06:14:41.844Z,16.86
2019-05-20T06:15:41.865Z,16.84
2019-05-20T06:16:41.888Z,16.95
2019-05-20T06:17:41.911Z,16.98
2019-05-20T06:18:41.934Z,17.10
2019-05-20T06:19:41.966Z,17.16
2019-05-20T06:20:41.979Z,17.27
2019-05-20T06:21:41.999Z,17.41
2019-05-20T06:22:42.023Z,17.57
2019-05-20T06:23:42.047Z,17.53
2019-05-20T06:24:42.068Z,17.65
2019-05-20T06:25:42.098Z,17.79
2019-05-20T06:26:42.114Z,17.86
2019-05-20T06:27:42.184Z,17.98
2019-05-20T06:28:42.162Z,17.95
2019-05-20T06:29:42.228Z,18.02
2019-05-20T06:30:42.213Z,18.30
2019-05-20T06:31:42.233Z,18.33
2019-05-20T06:32:42.262Z,18.39
2019-05-20T06:33:42.280Z,18.60
2019-05-20T06:34:43.120Z,18.79
2019-05-20T06:35:42.333Z,18.96
2019-05-20T06:36:42.353Z,19.11
2019-05-20T06:37:42.378Z,19.12
2019-05-20T06:38:42.404Z,19.35
2019-05-20T06:39:42.429Z,19.41
2019-05-20T06:40:42.456Z,19.63
2019-05-20T06:41:42.478Z,19.79
2019-05-20T06:42:42.504Z,19.82
2019-05-20T06:43:42.530Z,20.11
2019-05-20T06:44:52.409Z,20.12
2019-05-20T06:45:42.588Z,20.27
2019-05-20T06:46:42.609Z,20.30
2019-05-20T06:47:42.631Z,20.49
2019-05-20T06:48:42.683Z,20.50
2019-05-20T06:49:42.687Z,20.49
2019-05-20T06:50:42.712Z,20.66
2019-05-20T06:51:42.739Z,20.83
2019-05-20T06:52:42.764Z,21.00
2019-05-20T06:53:42.792Z,20.95
2019-05-20T06:54:42.818Z,20.96
2019-05-20T06:55:42.847Z,21.04
2019-05-20T06:56:43.056Z,21.01
2019-05-20T06:57:42.907Z,21.05
2019-05-20T06:58:42.992Z,21.05
2019-05-20T06:59:42.998Z,21.17
2019-05-20T07:00:43.039Z,21.20
2019-05-20T07:01:43.072Z,21.40
2019-05-20T07:02:43.061Z,21.50
2019-05-20T07:03:43.065Z,21.43
2019-05-20T07:04:43.091Z,21.45
2019-05-20T07:05:43.119Z,21.47
2019-05-20T07:06:47.218Z,21.60
2019-05-20T07:07:43.172Z,21.65
2019-05-20T07:08:43.199Z,21.60
2019-05-20T07:09:43.237Z,21.75
2019-05-20T07:10:43.255Z,21.74
2019-05-20T07:11:52.381Z,21.80
2019-05-20T07:12:43.314Z,21.78
2019-05-20T07:13:43.339Z,21.96
2019-05-20T07:14:43.369Z,22.06
2019-05-20T07:15:43.396Z,22.14
2019-05-20T07:16:43.432Z,22.34
2019-05-20T07:17:43.456Z,22.37
2019-05-20T07:18:43.482Z,22.53
2019-05-20T07:19:43.512Z,22.62
2019-05-20T07:20:43.542Z,22.61
2019-05-20T07:21:43.568Z,22.62
2019-05-20T07:22:55.408Z,22.59
2019-05-20T07:23:43.629Z,22.63
2019-05-20T07:24:43.656Z,22.77
2019-05-20T07:25:43.685Z,22.80
2019-05-20T07:26:43.716Z,22.93
2019-05-20T07:27:43.748Z,22.95
2019-05-20T07:28:43.790Z,22.95
2019-05-20T07:29:43.815Z,23.01
2019-05-20T07:30:43.838Z,22.92
2019-05-20T07:31:43.868Z,23.16
2019-05-20T07:32:43.893Z,23.20
2019-05-20T07:33:43.941Z,23.39
2019-05-20T07:34:43.957Z,23.45
2019-05-20T07:35:43.993Z,23.56
2019-05-20T07:36:44.031Z,23.66
2019-05-20T07:37:44.051Z,23.84
2019-05-20T07:38:44.080Z,23.92
2019-05-20T07:39:44.110Z,24.06
2019-05-20T07:40:44.144Z,24.18
2019-05-20T07:41:44.170Z,24.11
2019-05-20T07:42:44.202Z,24.24
2019-05-20T07:43:44.233Z,24.28
2019-05-20T07:44:44.286Z,24.38
2019-05-20T07:45:44.295Z,24.56
2019-05-20T07:46:44.331Z,24.56
2019-05-20T07:47:44.362Z,24.68
2019-05-20T07:48:44.398Z,24.69
2019-05-20T07:49:44.428Z,24.75
2019-05-20T07:50:44.465Z,24.93
2019-05-20T07:51:44.488Z,24.94
2019-05-20T07:52:44.519Z,24.88
2019-05-20T07:53:44.577Z,24.99
2019-05-20T07:54:44.582Z,24.94
2019-05-20T07:55:44.615Z,25.03
2019-05-20T07:56:44.661Z,24.88
2019-05-20T07:57:44.678Z,24.86
2019-05-20T07:58:44.710Z,24.88
2019-05-20T07:59:44.749Z,24.84
2019-05-20T08:00:44.772Z,24.79
2019-05-20T08:01:44.806Z,24.78
2019-05-20T08:02:44.913Z,24.82
2019-05-20T08:03:44.924Z,24.78
2019-05-20T08:04:45.022Z,24.63
2019-05-20T08:05:44.990Z,24.69
2019-05-20T08:06:45.002Z,24.47
2019-05-20T08:07:51.901Z,24.59
2019-05-20T08:08:45.028Z,24.62
2019-05-20T08:09:46.285Z,24.77
2019-05-20T08:10:45.133Z,24.88
2019-05-20T08:11:45.125Z,25.04
2019-05-20T08:12:45.156Z,25.09
2019-05-20T08:13:45.188Z,25.09
2019-05-20T08:14:45.221Z,25.12
2019-05-20T08:15:45.255Z,24.89
2019-05-20T08:16:45.287Z,25.00
2019-05-20T08:17:45.320Z,25.09
2019-05-20T08:18:45.361Z,25.16
2019-05-20T08:19:45.385Z,25.30
2019-05-20T08:20:45.418Z,25.36
2019-05-20T08:21:45.450Z,25.19
2019-05-20T08:22:45.488Z,25.31
2019-05-20T08:23:45.529Z,25.46
2019-05-20T08:24:45.556Z,25.46
2019-05-20T08:25:45.583Z,25.59
2019-05-20T08:26:45.634Z,25.74
2019-05-20T08:27:45.651Z,25.74
2019-05-20T08:28:45.696Z,25.86
2019-05-20T08:29:45.726Z,25.91
2019-05-20T08:30:45.751Z,25.98
2019-05-20T08:31:45.798Z,26.10
2019-05-20T08:32:45.821Z,26.07
2019-05-20T08:33:45.856Z,26.22
2019-05-20T08:34:45.887Z,26.27
2019-05-20T08:35:45.919Z,26.30
2019-05-20T08:36:45.955Z,26.23
2019-05-20T08:37:46.278Z,26.24
2019-05-20T08:38:46.019Z,26.19
2019-05-20T08:39:46.052Z,26.22
2019-05-20T08:40:48.475Z,26.19
2019-05-20T08:41:46.116Z,26.29
2019-05-20T08:42:46.150Z,26.26
2019-05-20T08:43:46.202Z,26.07
2019-05-20T08:44:46.218Z,26.07
2019-05-20T08:45:46.250Z,26.03
2019-05-20T08:46:46.284Z,25.95
2019-05-20T08:47:46.317Z,26.07
2019-05-20T08:48:46.347Z,26.03
2019-05-20T08:49:46.648Z,26.06
2019-05-20T08:50:46.411Z,26.07
2019-05-20T08:51:46.453Z,26.06
2019-05-20T08:52:46.481Z,25.96
2019-05-20T08:53:46.508Z,25.96
2019-05-20T08:54:46.543Z,25.95
2019-05-20T08:55:46.575Z,25.99
2019-05-20T08:56:49.303Z,26.06
2019-05-20T08:57:46.637Z,26.11
2019-05-20T08:58:46.678Z,26.15
2019-05-20T08:59:46.701Z,26.26
2019-05-20T09:00:46.734Z,26.24
2019-05-20T09:01:46.852Z,26.29
2019-05-20T09:02:46.848Z,26.37
2019-05-20T09:03:46.866Z,26.39
2019-05-20T09:04:46.913Z,26.41
2019-05-20T09:05:46.914Z,26.51
2019-05-20T09:06:46.930Z,26.51
2019-05-20T09:08:01.605Z,26.53
2019-05-20T09:08:47.002Z,26.56
2019-05-20T09:09:47.035Z,26.56
2019-05-20T09:10:47.064Z,26.64
2019-05-20T09:11:47.956Z,26.79
2019-05-20T09:12:47.136Z,26.76
2019-05-20T09:13:47.191Z,26.79
2019-05-20T09:14:47.197Z,26.98
2019-05-20T09:15:47.236Z,27.07
2019-05-20T09:16:47.289Z,27.20
2019-05-20T09:17:47.304Z,27.26
2019-05-20T09:18:47.340Z,27.29
2019-05-20T09:19:47.442Z,27.45
2019-05-20T09:20:47.407Z,27.45
2019-05-20T09:21:47.434Z,27.53
2019-05-20T09:22:47.479Z,27.52
2019-05-20T09:23:47.512Z,27.64
2019-05-20T09:24:47.685Z,27.71
2019-05-20T09:25:47.570Z,27.61
2019-05-20T09:26:47.692Z,27.67
2019-05-20T09:27:47.640Z,27.64
2019-05-20T09:28:47.674Z,27.64
2019-05-20T09:29:47.712Z,27.82
2019-05-20T09:30:47.785Z,27.72
2019-05-20T09:31:47.784Z,27.76
2019-05-20T09:32:47.813Z,27.82
2019-05-20T09:33:47.858Z,27.83
2019-05-20T09:34:47.880Z,27.85
2019-05-20T09:35:47.911Z,27.97
2019-05-20T09:36:47.941Z,27.86
2019-05-20T09:37:47.978Z,27.83
2019-05-20T09:38:48.011Z,28.00
2019-05-20T09:39:48.045Z,27.88
2019-05-20T09:40:48.100Z,27.93
2019-05-20T09:41:48.113Z,28.08
2019-05-20T09:42:48.143Z,28.16
2019-05-20T09:43:48.184Z,28.13
2019-05-20T09:44:48.211Z,28.28
2019-05-20T09:46:05.269Z,28.27
2019-05-20T09:46:48.280Z,28.19
2019-05-20T09:47:48.310Z,28.28
2019-05-20T09:48:48.346Z,28.41
2019-05-20T09:49:48.378Z,28.35
2019-05-20T09:50:48.416Z,28.34
2019-05-20T09:51:48.445Z,28.40
2019-05-20T09:52:48.476Z,28.46
2019-05-20T09:53:48.517Z,28.57
2019-05-20T09:54:48.545Z,28.53
2019-05-20T09:55:48.580Z,28.46
2019-05-20T09:56:48.616Z,28.47
2019-05-20T09:57:48.647Z,28.57
2019-05-20T09:58:48.692Z,28.59
2019-05-20T09:59:48.771Z,28.67
2019-05-20T10:00:48.792Z,28.68
2019-05-20T10:01:50.050Z,28.74
2019-05-20T10:02:48.867Z,28.92
2019-05-20T10:03:48.861Z,29.05
2019-05-20T10:04:48.892Z,29.22
2019-05-20T10:05:48.929Z,29.28
2019-05-20T10:06:48.965Z,29.47
2019-05-20T10:07:49.000Z,29.64
2019-05-20T10:08:49.036Z,29.74
2019-05-20T10:09:49.074Z,29.86
2019-05-20T10:10:49.109Z,30.08
2019-05-20T10:11:49.149Z,30.31
2019-05-20T10:12:49.185Z,30.24
2019-05-20T10:13:49.223Z,30.35
2019-05-20T10:14:52.659Z,30.55
2019-05-20T10:15:49.351Z,30.69
2019-05-20T10:16:49.343Z,30.78
2019-05-20T10:17:49.375Z,30.93
2019-05-20T10:18:49.417Z,30.96
2019-05-20T10:19:49.454Z,31.08
2019-05-20T10:20:49.501Z,31.00
2019-05-20T10:21:49.529Z,31.08
2019-05-20T10:22:49.568Z,31.25
2019-05-20T10:23:49.607Z,31.26
2019-05-20T10:24:49.646Z,31.48
2019-05-20T10:25:49.683Z,31.54
2019-05-20T10:26:49.724Z,31.72
2019-05-20T10:27:49.761Z,31.85
2019-05-20T10:28:49.801Z,31.90
2019-05-20T10:29:49.840Z,32.17
2019-05-20T10:30:49.879Z,32.38
2019-05-20T10:31:49.918Z,32.38
2019-05-20T10:32:49.959Z,32.44
2019-05-20T10:33:50.000Z,32.68
2019-05-20T10:34:50.044Z,32.68
2019-05-20T10:35:50.078Z,32.85
2019-05-20T10:36:50.117Z,32.79
2019-05-20T10:37:50.166Z,32.95
2019-05-20T10:38:58.474Z,33.19
2019-05-20T10:39:50.237Z,33.32
2019-05-20T10:40:50.278Z,33.45
2019-05-20T10:41:50.317Z,33.65
2019-05-20T10:42:50.362Z,33.77
2019-05-20T10:43:50.400Z,33.85
2019-05-20T10:44:50.440Z,33.88
2019-05-20T10:45:50.476Z,33.98
2019-05-20T10:46:50.531Z,34.03
2019-05-20T10:47:50.559Z,34.03
2019-05-20T10:48:50.598Z,34.07
2019-05-20T10:49:50.670Z,34.03
2019-05-20T10:50:50.738Z,33.97
2019-05-20T10:51:50.777Z,34.11
2019-05-20T10:52:50.780Z,34.18
2019-05-20T10:53:50.801Z,34.40
2019-05-20T10:54:50.834Z,34.43
2019-05-20T10:55:50.874Z,34.53
2019-05-20T10:56:50.915Z,34.62
2019-05-20T10:57:50.954Z,34.60
2019-05-20T10:58:50.993Z,34.83
2019-05-20T10:59:51.037Z,34.94
2019-05-20T11:01:01.948Z,34.91
2019-05-20T11:01:51.114Z,34.85
2019-05-20T11:02:51.167Z,34.69
2019-05-20T11:03:51.443Z,34.53
2019-05-20T11:04:51.268Z,34.43
2019-05-20T11:05:51.296Z,34.07
2019-05-20T11:06:51.313Z,33.91
2019-05-20T11:07:51.403Z,33.70
2019-05-20T11:08:51.387Z,33.57
2019-05-20T11:09:51.437Z,33.47
2019-05-20T11:10:51.508Z,33.28
2019-05-20T11:11:51.499Z,33.03
2019-05-20T11:12:51.539Z,32.90
2019-05-20T11:13:51.573Z,32.60
2019-05-20T11:14:51.619Z,32.49
2019-05-20T11:15:51.644Z,32.26
2019-05-20T11:16:51.677Z,31.86
2019-05-20T11:17:51.714Z,31.69
2019-05-20T11:18:51.747Z,31.60
2019-05-20T11:19:51.781Z,31.28
2019-05-20T11:20:51.825Z,31.04
2019-05-20T11:21:51.858Z,31.04
2019-05-20T11:22:51.886Z,30.81
2019-05-20T11:23:51.923Z,30.59
2019-05-20T11:24:51.967Z,30.29
2019-05-20T11:25:51.981Z,30.02
2019-05-20T11:26:52.018Z,29.90
2019-05-20T11:27:52.045Z,29.84
2019-05-20T11:28:52.081Z,29.69
2019-05-20T11:29:52.109Z,29.53
2019-05-20T11:30:52.138Z,29.34
2019-05-20T11:31:52.170Z,29.20
2019-05-20T11:32:52.202Z,29.03
2019-05-20T11:33:52.233Z,28.87
2019-05-20T11:34:52.265Z,28.78
2019-05-20T11:35:52.293Z,28.70
2019-05-20T11:36:52.326Z,28.68
2019-05-20T11:37:52.354Z,28.49
2019-05-20T11:38:52.383Z,28.28
2019-05-20T11:39:52.416Z,28.08
2019-05-20T11:40:52.445Z,28.06
2019-05-20T11:41:54.257Z,27.78
2019-05-20T11:42:52.505Z,27.71
2019-05-20T11:43:52.537Z,27.67
2019-05-20T11:44:52.646Z,27.64
2019-05-20T11:45:52.651Z,27.75
2019-05-20T11:46:52.646Z,27.75
2019-05-20T11:47:52.733Z,27.66
2019-05-20T11:48:52.721Z,27.68
2019-05-20T11:49:52.728Z,27.78
2019-05-20T11:50:52.753Z,27.72
2019-05-20T11:51:52.770Z,27.67
2019-05-20T11:52:52.825Z,27.67
2019-05-20T11:53:52.837Z,27.63
2019-05-20T11:54:52.861Z,27.58
2019-05-20T11:55:52.889Z,27.45
2019-05-20T11:56:52.920Z,27.45
2019-05-20T11:57:52.948Z,27.50
2019-05-20T11:58:52.981Z,27.47
2019-05-20T11:59:53.008Z,27.50
2019-05-20T12:00:53.037Z,27.43
2019-05-20T12:01:53.072Z,27.40
2019-05-20T12:02:53.109Z,27.38
2019-05-20T12:03:53.126Z,27.34
2019-05-20T12:04:53.155Z,27.43
2019-05-20T12:05:53.217Z,27.26
2019-05-20T12:06:53.213Z,27.22
2019-05-20T12:07:53.245Z,27.22
2019-05-20T12:08:53.270Z,27.15
2019-05-20T12:09:53.301Z,27.22
2019-05-20T12:10:53.328Z,27.01
2019-05-20T12:11:53.362Z,27.01
2019-05-20T12:12:53.390Z,27.05
2019-05-20T12:13:53.418Z,26.97
2019-05-20T12:14:53.466Z,27.07
2019-05-20T12:15:53.475Z,27.04
2019-05-20T12:16:53.506Z,27.04
2019-05-20T12:17:53.534Z,27.05
2019-05-20T12:18:53.563Z,27.15
2019-05-20T12:19:53.590Z,27.07
2019-05-20T12:20:53.648Z,27.11
2019-05-20T12:21:53.650Z,27.07
2019-05-20T12:22:53.679Z,27.08
2019-05-20T12:23:53.711Z,27.18
2019-05-20T12:24:53.739Z,27.20
2019-05-20T12:25:53.766Z,27.26
2019-05-20T12:26:53.794Z,27.28
2019-05-20T12:27:53.835Z,27.23
2019-05-20T12:28:53.858Z,27.28
2019-05-20T12:29:53.884Z,27.25
2019-05-20T12:30:53.910Z,27.23
2019-05-20T12:31:53.940Z,27.25
2019-05-20T12:33:17.185Z,27.37
2019-05-20T12:33:53.996Z,27.33
2019-05-20T12:34:54.038Z,27.41
2019-05-20T12:35:54.060Z,27.30
2019-05-20T12:36:54.086Z,27.29
2019-05-20T12:37:54.111Z,27.30
2019-05-20T12:38:54.161Z,27.20
2019-05-20T12:40:06.513Z,27.28
2019-05-20T12:40:54.202Z,27.26
2019-05-20T12:41:54.261Z,27.30
2019-05-20T12:42:54.259Z,27.38
2019-05-20T12:44:11.109Z,27.45
2019-05-20T12:44:54.316Z,27.43
2019-05-20T12:45:54.346Z,27.48
2019-05-20T12:46:54.376Z,27.53
2019-05-20T12:47:54.407Z,27.60
2019-05-20T12:48:54.479Z,27.66
2019-05-20T12:49:54.462Z,27.58
2019-05-20T12:50:54.566Z,27.60
2019-05-20T12:51:54.573Z,27.50
2019-05-20T12:52:54.573Z,27.55